sensor_id;sensor_type;location;lat;lon;timestamp;P1;durP1;ratioP1;P2;durP2;ratioP2
24337;SDS011;12457;50.832;4.346;2023-03-20T00:03:45;23.15;;;11.80;;
24337;SDS011;12457;50.832;4.346;2023-03-20T00:06:18;23.60;;;12.75;;
24337;SDS011;12457;50.832;4.346;2023-03-20T00:08:47;26.42;;;12.13;;
24337;SDS011;12457;50.832;4.346;2023-03-20T00:14:11;21.65;;;11.73;;
24337;SDS011;12457;50.832;4.346;2023-03-20T00:16:39;21.80;;;11.60;;
24337;SDS011;12457;50.832;4.346;2023-03-20T00:19:13;20.88;;;11.75;;
24337;SDS011;12457;50.832;4.346;2023-03-20T00:24:07;22.60;;;11.07;;
24337;SDS011;12457;50.832;4.346;2023-03-20T00:26:33;20.10;;;11.27;;
24337;SDS011;12457;50.832;4.346;2023-03-20T00:29:01;27.33;;;12.75;;
24337;SDS011;12457;50.832;4.346;2023-03-20T00:34:02;31.92;;;14.48;;
24337;SDS011;12457;50.832;4.346;2023-03-20T00:36:30;23.95;;;11.80;;
24337;SDS011;12457;50.832;4.346;2023-03-20T00:38:57;25.85;;;11.27;;
24337;SDS011;12457;50.832;4.346;2023-03-20T00:41:26;19.35;;;10.55;;
24337;SDS011;12457;50.832;4.346;2023-03-20T00:43:58;24.65;;;10.60;;
24337;SDS011;12457;50.832;4.346;2023-03-20T00:46:26;18.80;;;9.95;;
24337;SDS011;12457;50.832;4.346;2023-03-20T00:48:54;24.50;;;11.10;;
24337;SDS011;12457;50.832;4.346;2023-03-20T00:51:20;20.77;;;10.32;;
24337;SDS011;12457;50.832;4.346;2023-03-20T00:53:45;24.05;;;10.25;;
24337;SDS011;12457;50.832;4.346;2023-03-20T00:58:58;22.30;;;10.25;;
24337;SDS011;12457;50.832;4.346;2023-03-20T01:01:25;23.45;;;10.50;;
24337;SDS011;12457;50.832;4.346;2023-03-20T01:03:51;20.95;;;10.35;;
24337;SDS011;12457;50.832;4.346;2023-03-20T01:06:17;22.45;;;12.18;;
24337;SDS011;12457;50.832;4.346;2023-03-20T01:08:43;17.67;;;9.95;;
24337;SDS011;12457;50.832;4.346;2023-03-20T01:11:10;18.38;;;10.23;;
24337;SDS011;12457;50.832;4.346;2023-03-20T01:13:37;19.10;;;9.52;;
24337;SDS011;12457;50.832;4.346;2023-03-20T01:16:05;29.92;;;10.70;;
24337;SDS011;12457;50.832;4.346;2023-03-20T01:18:37;24.75;;;11.45;;
24337;SDS011;12457;50.832;4.346;2023-03-20T01:21:03;28.08;;;11.43;;
24337;SDS011;12457;50.832;4.346;2023-03-20T01:23:29;25.63;;;11.43;;
24337;SDS011;12457;50.832;4.346;2023-03-20T01:25:54;21.20;;;11.20;;
24337;SDS011;12457;50.832;4.346;2023-03-20T01:28:21;25.27;;;11.05;;
24337;SDS011;12457;50.832;4.346;2023-03-20T01:30:48;19.30;;;11.35;;
24337;SDS011;12457;50.832;4.346;2023-03-20T01:33:18;24.70;;;11.77;;
24337;SDS011;12457;50.832;4.346;2023-03-20T01:35:45;22.20;;;11.20;;
24337;SDS011;12457;50.832;4.346;2023-03-20T01:38:14;24.20;;;11.30;;
24337;SDS011;12457;50.832;4.346;2023-03-20T01:40:47;29.20;;;12.50;;
24337;SDS011;12457;50.832;4.346;2023-03-20T01:43:20;25.80;;;12.50;;
24337;SDS011;12457;50.832;4.346;2023-03-20T01:45:55;21.05;;;11.95;;
24337;SDS011;12457;50.832;4.346;2023-03-20T01:48:35;25.15;;;12.30;;
24337;SDS011;12457;50.832;4.346;2023-03-20T01:51:13;24.05;;;11.60;;
24337;SDS011;12457;50.832;4.346;2023-03-20T01:53:40;22.67;;;12.48;;
24337;SDS011;12457;50.832;4.346;2023-03-20T01:56:06;27.20;;;12.57;;
24337;SDS011;12457;50.832;4.346;2023-03-20T01:58:36;26.75;;;12.70;;
24337;SDS011;12457;50.832;4.346;2023-03-20T02:01:05;29.50;;;12.98;;
24337;SDS011;12457;50.832;4.346;2023-03-20T02:03:35;21.40;;;12.32;;
24337;SDS011;12457;50.832;4.346;2023-03-20T02:06:02;23.17;;;11.48;;
24337;SDS011;12457;50.832;4.346;2023-03-20T02:08:30;22.70;;;12.40;;
24337;SDS011;12457;50.832;4.346;2023-03-20T02:11:02;24.83;;;12.73;;
24337;SDS011;12457;50.832;4.346;2023-03-20T02:13:29;23.40;;;12.07;;
24337;SDS011;12457;50.832;4.346;2023-03-20T02:16:06;21.85;;;12.02;;
24337;SDS011;12457;50.832;4.346;2023-03-20T02:18:55;28.67;;;12.80;;
24337;SDS011;12457;50.832;4.346;2023-03-20T02:35:07;31.30;;;14.25;;
24337;SDS011;12457;50.832;4.346;2023-03-20T02:43:35;31.20;;;13.48;;
24337;SDS011;12457;50.832;4.346;2023-03-20T02:46:22;35.90;;;14.27;;
24337;SDS011;12457;50.832;4.346;2023-03-20T03:01:54;31.35;;;14.98;;
24337;SDS011;12457;50.832;4.346;2023-03-20T03:04:29;30.30;;;14.35;;
24337;SDS011;12457;50.832;4.346;2023-03-20T03:06:59;31.73;;;15.35;;
24337;SDS011;12457;50.832;4.346;2023-03-20T03:09:32;31.55;;;14.75;;
24337;SDS011;12457;50.832;4.346;2023-03-20T03:12:10;33.30;;;15.18;;
24337;SDS011;12457;50.832;4.346;2023-03-20T03:15:05;38.80;;;16.10;;
24337;SDS011;12457;50.832;4.346;2023-03-20T03:17:40;33.05;;;14.73;;
24337;SDS011;12457;50.832;4.346;2023-03-20T03:20:13;38.10;;;14.57;;
24337;SDS011;12457;50.832;4.346;2023-03-20T03:22:48;31.88;;;14.38;;
24337;SDS011;12457;50.832;4.346;2023-03-20T03:25:14;33.30;;;13.93;;
24337;SDS011;12457;50.832;4.346;2023-03-20T03:27:44;39.83;;;15.02;;
24337;SDS011;12457;50.832;4.346;2023-03-20T03:30:16;40.05;;;15.27;;
24337;SDS011;12457;50.832;4.346;2023-03-20T03:32:53;33.33;;;14.25;;
24337;SDS011;12457;50.832;4.346;2023-03-20T03:35:41;27.08;;;13.13;;
24337;SDS011;12457;50.832;4.346;2023-03-20T03:40:58;38.08;;;14.43;;
24337;SDS011;12457;50.832;4.346;2023-03-20T03:43:34;28.33;;;12.80;;
24337;SDS011;12457;50.832;4.346;2023-03-20T03:46:11;32.60;;;12.95;;
24337;SDS011;12457;50.832;4.346;2023-03-20T03:48:43;35.97;;;12.45;;
24337;SDS011;12457;50.832;4.346;2023-03-20T03:51:33;27.70;;;12.50;;
24337;SDS011;12457;50.832;4.346;2023-03-20T03:54:03;30.25;;;12.15;;
24337;SDS011;12457;50.832;4.346;2023-03-20T03:56:44;33.28;;;12.70;;
24337;SDS011;12457;50.832;4.346;2023-03-20T03:59:19;25.08;;;11.98;;
24337;SDS011;12457;50.832;4.346;2023-03-20T04:01:49;32.53;;;11.60;;
24337;SDS011;12457;50.832;4.346;2023-03-20T04:04:17;27.27;;;11.63;;
24337;SDS011;12457;50.832;4.346;2023-03-20T04:06:44;35.20;;;12.40;;
24337;SDS011;12457;50.832;4.346;2023-03-20T04:09:10;32.33;;;11.45;;
24337;SDS011;12457;50.832;4.346;2023-03-20T04:11:36;27.45;;;11.70;;
24337;SDS011;12457;50.832;4.346;2023-03-20T04:14:02;28.63;;;11.25;;
24337;SDS011;12457;50.832;4.346;2023-03-20T04:16:27;27.17;;;12.10;;
24337;SDS011;12457;50.832;4.346;2023-03-20T04:18:54;30.23;;;11.80;;
24337;SDS011;12457;50.832;4.346;2023-03-20T04:21:20;29.50;;;11.23;;
24337;SDS011;12457;50.832;4.346;2023-03-20T04:23:46;28.70;;;11.05;;
24337;SDS011;12457;50.832;4.346;2023-03-20T04:26:12;29.60;;;11.48;;
24337;SDS011;12457;50.832;4.346;2023-03-20T04:28:38;25.25;;;10.50;;
24337;SDS011;12457;50.832;4.346;2023-03-20T04:31:03;24.05;;;10.82;;
24337;SDS011;12457;50.832;4.346;2023-03-20T04:33:29;28.35;;;11.35;;
24337;SDS011;12457;50.832;4.346;2023-03-20T04:35:55;25.70;;;10.60;;
24337;SDS011;12457;50.832;4.346;2023-03-20T04:38:22;28.60;;;11.02;;
24337;SDS011;12457;50.832;4.346;2023-03-20T04:40:51;26.13;;;10.75;;
24337;SDS011;12457;50.832;4.346;2023-03-20T04:43:16;22.42;;;10.68;;
24337;SDS011;12457;50.832;4.346;2023-03-20T04:45:42;32.88;;;9.88;;
24337;SDS011;12457;50.832;4.346;2023-03-20T04:48:08;26.48;;;10.40;;
24337;SDS011;12457;50.832;4.346;2023-03-20T04:50:37;29.58;;;9.25;;
24337;SDS011;12457;50.832;4.346;2023-03-20T04:53:03;26.45;;;9.90;;
24337;SDS011;12457;50.832;4.346;2023-03-20T04:55:29;27.65;;;9.60;;
24337;SDS011;12457;50.832;4.346;2023-03-20T04:57:55;26.48;;;9.10;;
24337;SDS011;12457;50.832;4.346;2023-03-20T05:00:21;22.60;;;8.60;;
24337;SDS011;12457;50.832;4.346;2023-03-20T05:02:47;23.05;;;9.85;;
24337;SDS011;12457;50.832;4.346;2023-03-20T05:05:12;29.38;;;9.98;;
24337;SDS011;12457;50.832;4.346;2023-03-20T05:07:38;26.88;;;9.40;;
24337;SDS011;12457;50.832;4.346;2023-03-20T05:10:04;25.55;;;9.45;;
24337;SDS011;12457;50.832;4.346;2023-03-20T05:12:30;25.48;;;9.40;;
24337;SDS011;12457;50.832;4.346;2023-03-20T05:14:56;27.52;;;9.52;;
24337;SDS011;12457;50.832;4.346;2023-03-20T05:17:22;24.77;;;9.05;;
24337;SDS011;12457;50.832;4.346;2023-03-20T05:19:49;19.30;;;8.75;;
24337;SDS011;12457;50.832;4.346;2023-03-20T05:22:15;24.60;;;9.32;;
24337;SDS011;12457;50.832;4.346;2023-03-20T05:24:42;23.35;;;8.98;;
24337;SDS011;12457;50.832;4.346;2023-03-20T05:27:07;26.92;;;9.50;;
24337;SDS011;12457;50.832;4.346;2023-03-20T05:29:33;21.23;;;8.70;;
24337;SDS011;12457;50.832;4.346;2023-03-20T05:32:00;21.05;;;7.80;;
24337;SDS011;12457;50.832;4.346;2023-03-20T05:34:25;33.90;;;9.73;;
24337;SDS011;12457;50.832;4.346;2023-03-20T05:36:52;36.88;;;10.57;;
24337;SDS011;12457;50.832;4.346;2023-03-20T05:39:17;21.65;;;7.70;;
24337;SDS011;12457;50.832;4.346;2023-03-20T05:41:43;31.67;;;7.78;;
24337;SDS011;12457;50.832;4.346;2023-03-20T05:44:09;25.13;;;8.10;;
24337;SDS011;12457;50.832;4.346;2023-03-20T05:46:35;16.85;;;7.13;;
24337;SDS011;12457;50.832;4.346;2023-03-20T05:49:01;23.33;;;7.95;;
24337;SDS011;12457;50.832;4.346;2023-03-20T05:51:26;21.05;;;7.65;;
24337;SDS011;12457;50.832;4.346;2023-03-20T05:53:52;29.08;;;7.95;;
24337;SDS011;12457;50.832;4.346;2023-03-20T05:56:18;27.50;;;7.93;;
24337;SDS011;12457;50.832;4.346;2023-03-20T05:58:43;24.75;;;7.90;;
24337;SDS011;12457;50.832;4.346;2023-03-20T06:01:09;21.98;;;7.53;;
24337;SDS011;12457;50.832;4.346;2023-03-20T06:03:35;19.67;;;6.65;;
24337;SDS011;12457;50.832;4.346;2023-03-20T06:06:02;19.27;;;7.28;;
24337;SDS011;12457;50.832;4.346;2023-03-20T06:08:28;18.42;;;7.00;;
24337;SDS011;12457;50.832;4.346;2023-03-20T06:10:57;20.33;;;7.18;;
24337;SDS011;12457;50.832;4.346;2023-03-20T06:13:24;19.40;;;6.25;;
24337;SDS011;12457;50.832;4.346;2023-03-20T06:15:50;21.80;;;6.65;;
24337;SDS011;12457;50.832;4.346;2023-03-20T06:18:15;22.55;;;6.32;;
24337;SDS011;12457;50.832;4.346;2023-03-20T06:20:53;19.25;;;5.93;;
24337;SDS011;12457;50.832;4.346;2023-03-20T06:23:19;24.60;;;8.07;;
24337;SDS011;12457;50.832;4.346;2023-03-20T06:25:45;24.48;;;7.80;;
24337;SDS011;12457;50.832;4.346;2023-03-20T06:28:11;16.55;;;6.50;;
24337;SDS011;12457;50.832;4.346;2023-03-20T06:30:37;21.05;;;6.38;;
24337;SDS011;12457;50.832;4.346;2023-03-20T06:33:06;21.15;;;6.25;;
24337;SDS011;12457;50.832;4.346;2023-03-20T06:35:33;15.63;;;6.22;;
24337;SDS011;12457;50.832;4.346;2023-03-20T06:38:00;20.73;;;5.43;;
24337;SDS011;12457;50.832;4.346;2023-03-20T06:40:26;21.92;;;5.82;;
24337;SDS011;12457;50.832;4.346;2023-03-20T06:42:52;21.15;;;5.45;;
24337;SDS011;12457;50.832;4.346;2023-03-20T06:45:19;25.25;;;6.40;;
24337;SDS011;12457;50.832;4.346;2023-03-20T06:47:45;14.77;;;5.25;;
24337;SDS011;12457;50.832;4.346;2023-03-20T06:50:11;18.92;;;5.05;;
24337;SDS011;12457;50.832;4.346;2023-03-20T06:52:53;12.85;;;4.75;;
24337;SDS011;12457;50.832;4.346;2023-03-20T06:55:19;22.27;;;5.10;;
24337;SDS011;12457;50.832;4.346;2023-03-20T06:57:45;21.65;;;5.60;;
24337;SDS011;12457;50.832;4.346;2023-03-20T07:00:11;15.07;;;4.72;;
24337;SDS011;12457;50.832;4.346;2023-03-20T07:02:38;17.98;;;5.05;;
24337;SDS011;12457;50.832;4.346;2023-03-20T07:05:04;17.75;;;5.80;;
24337;SDS011;12457;50.832;4.346;2023-03-20T07:07:31;14.45;;;5.68;;
24337;SDS011;12457;50.832;4.346;2023-03-20T07:09:56;22.83;;;7.00;;
24337;SDS011;12457;50.832;4.346;2023-03-20T07:12:22;15.43;;;5.13;;
24337;SDS011;12457;50.832;4.346;2023-03-20T07:14:52;24.98;;;5.50;;
24337;SDS011;12457;50.832;4.346;2023-03-20T07:17:18;24.60;;;5.30;;
24337;SDS011;12457;50.832;4.346;2023-03-20T07:19:44;23.70;;;5.53;;
24337;SDS011;12457;50.832;4.346;2023-03-20T07:22:28;18.65;;;4.95;;
24337;SDS011;12457;50.832;4.346;2023-03-20T07:24:55;25.17;;;6.10;;
24337;SDS011;12457;50.832;4.346;2023-03-20T07:27:22;20.58;;;5.68;;
24337;SDS011;12457;50.832;4.346;2023-03-20T07:29:47;28.27;;;5.63;;
24337;SDS011;12457;50.832;4.346;2023-03-20T07:32:14;14.82;;;4.93;;
24337;SDS011;12457;50.832;4.346;2023-03-20T07:34:41;15.55;;;4.95;;
24337;SDS011;12457;50.832;4.346;2023-03-20T07:37:07;13.93;;;4.53;;
24337;SDS011;12457;50.832;4.346;2023-03-20T07:39:32;19.88;;;5.25;;
24337;SDS011;12457;50.832;4.346;2023-03-20T07:41:58;21.80;;;4.82;;
24337;SDS011;12457;50.832;4.346;2023-03-20T07:44:24;22.17;;;6.15;;
24337;SDS011;12457;50.832;4.346;2023-03-20T07:46:50;17.20;;;4.07;;
24337;SDS011;12457;50.832;4.346;2023-03-20T07:49:15;16.02;;;4.82;;
24337;SDS011;12457;50.832;4.346;2023-03-20T07:51:56;16.23;;;5.55;;
24337;SDS011;12457;50.832;4.346;2023-03-20T07:54:22;25.88;;;4.80;;
24337;SDS011;12457;50.832;4.346;2023-03-20T07:56:48;23.33;;;6.72;;
24337;SDS011;12457;50.832;4.346;2023-03-20T07:59:15;30.98;;;8.77;;
24337;SDS011;12457;50.832;4.346;2023-03-20T08:01:41;15.93;;;4.78;;
24337;SDS011;12457;50.832;4.346;2023-03-20T08:04:07;16.27;;;3.97;;
24337;SDS011;12457;50.832;4.346;2023-03-20T08:06:48;18.33;;;5.07;;
24337;SDS011;12457;50.832;4.346;2023-03-20T08:09:15;16.52;;;4.68;;
24337;SDS011;12457;50.832;4.346;2023-03-20T08:11:41;14.90;;;4.70;;
24337;SDS011;12457;50.832;4.346;2023-03-20T08:14:08;23.67;;;5.25;;
24337;SDS011;12457;50.832;4.346;2023-03-20T08:16:34;14.57;;;4.18;;
24337;SDS011;12457;50.832;4.346;2023-03-20T08:18:59;19.65;;;4.63;;
24337;SDS011;12457;50.832;4.346;2023-03-20T08:24:10;20.83;;;4.60;;
24337;SDS011;12457;50.832;4.346;2023-03-20T08:26:36;22.08;;;5.18;;
24337;SDS011;12457;50.832;4.346;2023-03-20T08:29:01;20.45;;;4.97;;
24337;SDS011;12457;50.832;4.346;2023-03-20T08:31:28;18.23;;;4.50;;
24337;SDS011;12457;50.832;4.346;2023-03-20T08:33:54;15.80;;;4.32;;
24337;SDS011;12457;50.832;4.346;2023-03-20T08:36:21;18.15;;;4.88;;
24337;SDS011;12457;50.832;4.346;2023-03-20T08:38:48;27.83;;;5.03;;
24337;SDS011;12457;50.832;4.346;2023-03-20T08:41:14;18.23;;;4.70;;
24337;SDS011;12457;50.832;4.346;2023-03-20T08:43:43;12.38;;;4.65;;
24337;SDS011;12457;50.832;4.346;2023-03-20T08:46:09;30.02;;;5.65;;
24337;SDS011;12457;50.832;4.346;2023-03-20T08:48:35;21.33;;;5.35;;
24337;SDS011;12457;50.832;4.346;2023-03-20T08:51:03;15.73;;;5.35;;
24337;SDS011;12457;50.832;4.346;2023-03-20T08:53:34;30.92;;;6.30;;
24337;SDS011;12457;50.832;4.346;2023-03-20T08:56:01;19.20;;;5.85;;
24337;SDS011;12457;50.832;4.346;2023-03-20T08:58:28;14.65;;;5.60;;
24337;SDS011;12457;50.832;4.346;2023-03-20T09:00:56;23.58;;;5.57;;
24337;SDS011;12457;50.832;4.346;2023-03-20T09:03:24;22.63;;;5.70;;
24337;SDS011;12457;50.832;4.346;2023-03-20T09:05:50;16.15;;;5.38;;
24337;SDS011;12457;50.832;4.346;2023-03-20T09:08:16;24.65;;;5.95;;
24337;SDS011;12457;50.832;4.346;2023-03-20T09:10:42;20.63;;;5.90;;
24337;SDS011;12457;50.832;4.346;2023-03-20T09:13:08;23.25;;;6.10;;
24337;SDS011;12457;50.832;4.346;2023-03-20T09:15:34;20.98;;;6.95;;
24337;SDS011;12457;50.832;4.346;2023-03-20T09:18:01;19.80;;;6.65;;
24337;SDS011;12457;50.832;4.346;2023-03-20T09:20:27;22.02;;;5.10;;
24337;SDS011;12457;50.832;4.346;2023-03-20T09:22:53;23.65;;;5.30;;
24337;SDS011;12457;50.832;4.346;2023-03-20T09:25:20;15.88;;;6.07;;
24337;SDS011;12457;50.832;4.346;2023-03-20T09:27:45;20.58;;;5.47;;
24337;SDS011;12457;50.832;4.346;2023-03-20T09:30:14;31.88;;;7.03;;
24337;SDS011;12457;50.832;4.346;2023-03-20T09:32:40;21.40;;;5.47;;
24337;SDS011;12457;50.832;4.346;2023-03-20T09:35:06;14.18;;;4.88;;
24337;SDS011;12457;50.832;4.346;2023-03-20T09:37:32;19.08;;;6.32;;
24337;SDS011;12457;50.832;4.346;2023-03-20T09:39:58;25.15;;;5.15;;
24337;SDS011;12457;50.832;4.346;2023-03-20T09:48:13;19.02;;;5.78;;
24337;SDS011;12457;50.832;4.346;2023-03-20T09:53:39;17.90;;;5.30;;
24337;SDS011;12457;50.832;4.346;2023-03-20T09:56:19;23.10;;;5.00;;
24337;SDS011;12457;50.832;4.346;2023-03-20T09:58:57;21.60;;;5.97;;
24337;SDS011;12457;50.832;4.346;2023-03-20T10:01:28;21.60;;;5.00;;
24337;SDS011;12457;50.832;4.346;2023-03-20T10:03:57;20.67;;;5.78;;
24337;SDS011;12457;50.832;4.346;2023-03-20T10:06:31;11.85;;;4.68;;
24337;SDS011;12457;50.832;4.346;2023-03-20T10:08:57;19.27;;;5.45;;
24337;SDS011;12457;50.832;4.346;2023-03-20T10:11:37;16.30;;;4.35;;
24337;SDS011;12457;50.832;4.346;2023-03-20T10:17:27;13.43;;;4.65;;
24337;SDS011;12457;50.832;4.346;2023-03-20T10:22:57;15.07;;;5.23;;
24337;SDS011;12457;50.832;4.346;2023-03-20T10:25:32;15.97;;;4.93;;
24337;SDS011;12457;50.832;4.346;2023-03-20T10:42:02;14.18;;;4.43;;
24337;SDS011;12457;50.832;4.346;2023-03-20T10:44:35;20.13;;;4.13;;
24337;SDS011;12457;50.832;4.346;2023-03-20T10:47:10;13.25;;;3.97;;
24337;SDS011;12457;50.832;4.346;2023-03-20T10:49:42;11.55;;;3.40;;
24337;SDS011;12457;50.832;4.346;2023-03-20T10:52:16;15.77;;;3.58;;
24337;SDS011;12457;50.832;4.346;2023-03-20T10:58:16;15.95;;;3.35;;
24337;SDS011;12457;50.832;4.346;2023-03-20T11:00:45;16.73;;;4.32;;
24337;SDS011;12457;50.832;4.346;2023-03-20T11:03:15;13.75;;;3.70;;
24337;SDS011;12457;50.832;4.346;2023-03-20T11:05:52;20.20;;;3.80;;
24337;SDS011;12457;50.832;4.346;2023-03-20T11:08:24;21.02;;;3.92;;
24337;SDS011;12457;50.832;4.346;2023-03-20T11:10:58;23.15;;;4.18;;
24337;SDS011;12457;50.832;4.346;2023-03-20T11:15:53;19.63;;;4.75;;
24337;SDS011;12457;50.832;4.346;2023-03-20T11:18:19;17.00;;;3.97;;
24337;SDS011;12457;50.832;4.346;2023-03-20T11:20:51;13.00;;;3.55;;
24337;SDS011;12457;50.832;4.346;2023-03-20T11:23:19;13.95;;;4.30;;
24337;SDS011;12457;50.832;4.346;2023-03-20T11:26:06;16.48;;;3.63;;
24337;SDS011;12457;50.832;4.346;2023-03-20T11:28:41;17.27;;;4.10;;
24337;SDS011;12457;50.832;4.346;2023-03-20T11:31:16;19.00;;;3.63;;
24337;SDS011;12457;50.832;4.346;2023-03-20T11:36:27;16.48;;;3.85;;
24337;SDS011;12457;50.832;4.346;2023-03-20T11:42:01;23.73;;;3.60;;
24337;SDS011;12457;50.832;4.346;2023-03-20T11:44:31;14.93;;;4.13;;
24337;SDS011;12457;50.832;4.346;2023-03-20T11:47:00;16.67;;;4.10;;
24337;SDS011;12457;50.832;4.346;2023-03-20T11:49:31;11.23;;;3.10;;
24337;SDS011;12457;50.832;4.346;2023-03-20T11:52:13;19.52;;;3.42;;
24337;SDS011;12457;50.832;4.346;2023-03-20T11:54:51;13.40;;;4.32;;
24337;SDS011;12457;50.832;4.346;2023-03-20T11:57:40;15.85;;;4.18;;
24337;SDS011;12457;50.832;4.346;2023-03-20T12:02:48;21.25;;;3.78;;
24337;SDS011;12457;50.832;4.346;2023-03-20T12:05:31;13.43;;;3.70;;
24337;SDS011;12457;50.832;4.346;2023-03-20T12:08:19;17.25;;;5.22;;
24337;SDS011;12457;50.832;4.346;2023-03-20T12:10:54;16.70;;;4.22;;
24337;SDS011;12457;50.832;4.346;2023-03-20T12:13:26;15.13;;;4.65;;
24337;SDS011;12457;50.832;4.346;2023-03-20T12:16:05;15.25;;;4.40;;
24337;SDS011;12457;50.832;4.346;2023-03-20T12:18:42;19.02;;;4.18;;
24337;SDS011;12457;50.832;4.346;2023-03-20T12:26:22;15.68;;;4.85;;
24337;SDS011;12457;50.832;4.346;2023-03-20T12:31:27;13.43;;;4.60;;
24337;SDS011;12457;50.832;4.346;2023-03-20T12:36:45;22.80;;;5.43;;
24337;SDS011;12457;50.832;4.346;2023-03-20T12:39:17;19.70;;;4.88;;
24337;SDS011;12457;50.832;4.346;2023-03-20T13:07:28;16.80;;;5.57;;
24337;SDS011;12457;50.832;4.346;2023-03-20T13:13:23;18.42;;;4.78;;
24337;SDS011;12457;50.832;4.346;2023-03-20T13:18:19;22.88;;;5.70;;
24337;SDS011;12457;50.832;4.346;2023-03-20T13:20:54;17.73;;;5.45;;
24337;SDS011;12457;50.832;4.346;2023-03-20T13:26:14;19.17;;;5.00;;
24337;SDS011;12457;50.832;4.346;2023-03-20T13:31:35;18.70;;;4.80;;
24337;SDS011;12457;50.832;4.346;2023-03-20T13:34:18;22.85;;;5.60;;
24337;SDS011;12457;50.832;4.346;2023-03-20T13:37:27;17.67;;;5.78;;
24337;SDS011;12457;50.832;4.346;2023-03-20T13:42:42;19.77;;;5.55;;
24337;SDS011;12457;50.832;4.346;2023-03-20T13:47:52;18.17;;;5.80;;
24337;SDS011;12457;50.832;4.346;2023-03-20T13:50:24;19.77;;;4.90;;
24337;SDS011;12457;50.832;4.346;2023-03-20T13:53:18;19.80;;;5.72;;
24337;SDS011;12457;50.832;4.346;2023-03-20T13:56:03;16.50;;;5.10;;
24337;SDS011;12457;50.832;4.346;2023-03-20T14:04:16;16.83;;;5.72;;
24337;SDS011;12457;50.832;4.346;2023-03-20T14:06:55;19.42;;;5.78;;
24337;SDS011;12457;50.832;4.346;2023-03-20T14:09:40;16.20;;;5.57;;
24337;SDS011;12457;50.832;4.346;2023-03-20T14:12:06;27.63;;;6.30;;
24337;SDS011;12457;50.832;4.346;2023-03-20T14:14:41;21.63;;;6.10;;
24337;SDS011;12457;50.832;4.346;2023-03-20T14:17:19;16.33;;;6.00;;
24337;SDS011;12457;50.832;4.346;2023-03-20T14:19:56;17.23;;;6.78;;
24337;SDS011;12457;50.832;4.346;2023-03-20T14:22:35;20.42;;;6.55;;
24337;SDS011;12457;50.832;4.346;2023-03-20T14:25:06;23.45;;;5.90;;
24337;SDS011;12457;50.832;4.346;2023-03-20T14:27:56;18.55;;;5.70;;
24337;SDS011;12457;50.832;4.346;2023-03-20T14:35:37;18.98;;;6.70;;
24337;SDS011;12457;50.832;4.346;2023-03-20T14:57:49;20.10;;;5.80;;
24337;SDS011;12457;50.832;4.346;2023-03-20T15:00:19;21.92;;;6.30;;
24337;SDS011;12457;50.832;4.346;2023-03-20T15:03:08;20.73;;;6.82;;
24337;SDS011;12457;50.832;4.346;2023-03-20T15:05:38;20.73;;;7.50;;
24337;SDS011;12457;50.832;4.346;2023-03-20T15:08:51;22.73;;;6.93;;
24337;SDS011;12457;50.832;4.346;2023-03-20T15:11:05;22.48;;;6.43;;
24337;SDS011;12457;50.832;4.346;2023-03-20T15:13:33;30.80;;;6.90;;
24337;SDS011;12457;50.832;4.346;2023-03-20T15:16:05;26.13;;;6.38;;
24337;SDS011;12457;50.832;4.346;2023-03-20T15:18:40;32.38;;;7.13;;
24337;SDS011;12457;50.832;4.346;2023-03-20T15:21:12;26.70;;;6.90;;
24337;SDS011;12457;50.832;4.346;2023-03-20T15:24:05;22.95;;;6.80;;
24337;SDS011;12457;50.832;4.346;2023-03-20T15:26:32;20.70;;;5.68;;
24337;SDS011;12457;50.832;4.346;2023-03-20T15:31:31;26.17;;;6.80;;
24337;SDS011;12457;50.832;4.346;2023-03-20T15:33:59;21.15;;;6.72;;
24337;SDS011;12457;50.832;4.346;2023-03-20T15:36:29;27.58;;;7.50;;
24337;SDS011;12457;50.832;4.346;2023-03-20T15:39:18;25.13;;;6.95;;
24337;SDS011;12457;50.832;4.346;2023-03-20T15:42:08;25.02;;;6.50;;
24337;SDS011;12457;50.832;4.346;2023-03-20T15:44:37;25.83;;;7.07;;
24337;SDS011;12457;50.832;4.346;2023-03-20T15:47:12;19.67;;;6.10;;
24337;SDS011;12457;50.832;4.346;2023-03-20T15:49:41;23.83;;;6.68;;
24337;SDS011;12457;50.832;4.346;2023-03-20T15:52:17;23.42;;;6.53;;
24337;SDS011;12457;50.832;4.346;2023-03-20T15:54:49;22.95;;;6.82;;
24337;SDS011;12457;50.832;4.346;2023-03-20T15:57:18;19.90;;;6.28;;
24337;SDS011;12457;50.832;4.346;2023-03-20T15:59:50;15.48;;;6.60;;
24337;SDS011;12457;50.832;4.346;2023-03-20T16:02:16;26.83;;;7.35;;
24337;SDS011;12457;50.832;4.346;2023-03-20T16:04:44;21.90;;;6.03;;
24337;SDS011;12457;50.832;4.346;2023-03-20T16:07:31;23.77;;;7.65;;
24337;SDS011;12457;50.832;4.346;2023-03-20T16:09:58;27.00;;;6.75;;
24337;SDS011;12457;50.832;4.346;2023-03-20T16:12:28;20.05;;;6.40;;
24337;SDS011;12457;50.832;4.346;2023-03-20T16:14:56;22.25;;;5.93;;
24337;SDS011;12457;50.832;4.346;2023-03-20T16:17:22;19.05;;;5.88;;
24337;SDS011;12457;50.832;4.346;2023-03-20T16:19:51;27.60;;;7.07;;
24337;SDS011;12457;50.832;4.346;2023-03-20T16:22:27;21.63;;;6.30;;
24337;SDS011;12457;50.832;4.346;2023-03-20T16:24:56;23.33;;;6.55;;
24337;SDS011;12457;50.832;4.346;2023-03-20T16:27:31;25.35;;;6.65;;
24337;SDS011;12457;50.832;4.346;2023-03-20T16:30:04;18.95;;;6.15;;
24337;SDS011;12457;50.832;4.346;2023-03-20T16:38:19;24.48;;;6.90;;
24337;SDS011;12457;50.832;4.346;2023-03-20T16:43:53;18.92;;;6.50;;
24337;SDS011;12457;50.832;4.346;2023-03-20T16:46:21;23.83;;;6.35;;
24337;SDS011;12457;50.832;4.346;2023-03-20T16:48:51;24.77;;;6.32;;
24337;SDS011;12457;50.832;4.346;2023-03-20T16:51:26;20.52;;;6.43;;
24337;SDS011;12457;50.832;4.346;2023-03-20T16:53:56;25.83;;;6.82;;
24337;SDS011;12457;50.832;4.346;2023-03-20T16:56:27;25.92;;;7.75;;
24337;SDS011;12457;50.832;4.346;2023-03-20T16:58:58;16.40;;;6.28;;
24337;SDS011;12457;50.832;4.346;2023-03-20T17:01:30;22.67;;;7.65;;
24337;SDS011;12457;50.832;4.346;2023-03-20T17:03:57;19.80;;;6.40;;
24337;SDS011;12457;50.832;4.346;2023-03-20T17:06:48;23.75;;;6.28;;
24337;SDS011;12457;50.832;4.346;2023-03-20T17:09:24;23.95;;;6.15;;
24337;SDS011;12457;50.832;4.346;2023-03-20T17:11:56;27.97;;;6.90;;
24337;SDS011;12457;50.832;4.346;2023-03-20T17:14:39;24.38;;;6.32;;
24337;SDS011;12457;50.832;4.346;2023-03-20T17:17:17;17.10;;;6.00;;
24337;SDS011;12457;50.832;4.346;2023-03-20T17:19:45;22.52;;;7.75;;
24337;SDS011;12457;50.832;4.346;2023-03-20T17:22:17;22.60;;;6.40;;
24337;SDS011;12457;50.832;4.346;2023-03-20T17:24:50;20.65;;;6.35;;
24337;SDS011;12457;50.832;4.346;2023-03-20T17:27:16;19.48;;;5.63;;
24337;SDS011;12457;50.832;4.346;2023-03-20T17:29:44;26.35;;;7.47;;
24337;SDS011;12457;50.832;4.346;2023-03-20T17:32:11;23.75;;;6.93;;
24337;SDS011;12457;50.832;4.346;2023-03-20T17:34:38;19.85;;;7.05;;
24337;SDS011;12457;50.832;4.346;2023-03-20T17:37:05;24.90;;;6.22;;
24337;SDS011;12457;50.832;4.346;2023-03-20T17:39:35;29.13;;;7.90;;
24337;SDS011;12457;50.832;4.346;2023-03-20T17:42:01;19.63;;;6.40;;
24337;SDS011;12457;50.832;4.346;2023-03-20T17:44:27;26.27;;;6.63;;
24337;SDS011;12457;50.832;4.346;2023-03-20T17:46:53;19.70;;;6.97;;
24337;SDS011;12457;50.832;4.346;2023-03-20T17:49:20;21.27;;;6.20;;
24337;SDS011;12457;50.832;4.346;2023-03-20T17:51:51;23.23;;;6.85;;
24337;SDS011;12457;50.832;4.346;2023-03-20T17:54:19;24.65;;;6.88;;
24337;SDS011;12457;50.832;4.346;2023-03-20T17:56:45;21.88;;;6.43;;
24337;SDS011;12457;50.832;4.346;2023-03-20T17:59:13;21.40;;;7.57;;